createdAt,value
2022-09-04T00:01:50.758Z,16.07
2022-09-04T00:04:30.784Z,16.24
2022-09-04T00:07:09.464Z,16.23
2022-09-04T00:09:47.020Z,16.19
2022-09-04T00:12:15.394Z,16.09
2022-09-04T00:14:48.455Z,16.16
2022-09-04T00:17:24.499Z,16.14
2022-09-04T00:19:59.321Z,16.19
2022-09-04T00:22:33.535Z,16.27
2022-09-04T00:25:08.472Z,16.31
2022-09-04T00:27:44.249Z,16.25
2022-09-04T00:30:16.695Z,16.05
2022-09-04T00:32:52.807Z,16.23
2022-09-04T00:35:24.424Z,15.88
2022-09-04T00:37:57.512Z,15.68
2022-09-04T00:40:31.242Z,16.00
2022-09-04T00:43:14.781Z,16.28
2022-09-04T00:46:02.446Z,16.33
2022-09-04T00:48:59.985Z,16.35
2022-09-04T00:51:40.353Z,16.29
2022-09-04T00:54:38.163Z,16.37
2022-09-04T00:57:25.883Z,16.43
2022-09-04T01:00:09.316Z,16.42
2022-09-04T01:02:49.888Z,16.32
2022-09-04T01:05:36.166Z,16.34
2022-09-04T01:08:16.828Z,16.29
2022-09-04T01:10:55.670Z,16.25
2022-09-04T01:13:36.137Z,16.25
2022-09-04T01:16:10.290Z,16.23
2022-09-04T01:18:44.969Z,16.19
2022-09-04T01:21:30.885Z,16.15
2022-09-04T01:24:19.238Z,16.26
2022-09-04T01:26:54.920Z,16.27
2022-09-04T01:29:35.074Z,16.30
2022-09-04T01:32:10.099Z,16.30
2022-09-04T01:34:48.472Z,16.28
2022-09-04T01:37:29.879Z,16.26
2022-09-04T01:40:16.255Z,16.15
2022-09-04T01:42:51.651Z,16.30
2022-09-04T01:45:30.203Z,16.43
2022-09-04T01:48:03.870Z,16.46
2022-09-04T01:50:33.630Z,16.34
2022-09-04T01:53:06.273Z,16.31
2022-09-04T01:55:38.547Z,16.36
2022-09-04T01:58:19.791Z,16.33
2022-09-04T02:00:57.798Z,16.36
2022-09-04T02:03:28.978Z,16.42
2022-09-04T02:06:06.067Z,16.50
2022-09-04T02:08:52.572Z,16.60
2022-09-04T02:11:28.200Z,16.53
2022-09-04T02:14:11.406Z,16.71
2022-09-04T02:16:54.081Z,16.73
2022-09-04T02:19:32.843Z,16.73
2022-09-04T02:22:08.513Z,16.64
2022-09-04T02:24:47.995Z,16.51
2022-09-04T02:27:22.388Z,16.60
2022-09-04T02:29:58.129Z,16.61
2022-09-04T02:32:37.351Z,16.66
2022-09-04T02:35:11.203Z,16.73
2022-09-04T02:37:49.548Z,16.66
2022-09-04T02:40:23.044Z,16.62
2022-09-04T02:43:06.851Z,16.65
2022-09-04T02:45:43.118Z,16.59
2022-09-04T02:48:16.805Z,16.52
2022-09-04T02:51:05.025Z,16.49
2022-09-04T02:53:42.658Z,16.54
2022-09-04T02:56:26.248Z,16.64
2022-09-04T02:59:11.472Z,16.65
2022-09-04T03:01:49.699Z,16.65
2022-09-04T03:04:25.212Z,16.63
2022-09-04T03:06:55.960Z,16.62
2022-09-04T03:09:30.685Z,16.56
2022-09-04T03:12:02.184Z,16.42
2022-09-04T03:14:36.027Z,16.41
2022-09-04T03:17:12.854Z,16.33
2022-09-04T03:19:47.643Z,16.35
2022-09-04T03:22:21.847Z,16.33
2022-09-04T03:25:06.933Z,16.35
2022-09-04T03:27:35.556Z,16.26
2022-09-04T03:30:07.259Z,16.18
2022-09-04T03:32:46.403Z,16.04
2022-09-04T03:35:21.952Z,15.99
2022-09-04T03:38:03.127Z,15.93
2022-09-04T03:40:37.224Z,15.80
2022-09-04T03:43:30.996Z,15.70
2022-09-04T03:46:05.921Z,15.54
2022-09-04T03:48:49.403Z,15.65
2022-09-04T03:51:24.291Z,15.64
2022-09-04T03:53:59.176Z,15.61
2022-09-04T03:56:44.334Z,15.68
2022-09-04T03:59:25.213Z,15.61
2022-09-04T04:01:58.494Z,15.31
2022-09-04T04:05:03.880Z,15.52
2022-09-04T04:07:42.047Z,15.28
2022-09-04T04:10:21.764Z,15.62
2022-09-04T04:13:10.321Z,15.88
2022-09-04T04:15:50.374Z,15.88
2022-09-04T04:18:39.689Z,16.00
2022-09-04T04:21:17.665Z,15.97
2022-09-04T04:24:14.667Z,15.92
2022-09-04T04:27:00.003Z,15.89
2022-09-04T04:29:52.475Z,15.92
2022-09-04T04:32:34.326Z,15.91
2022-09-04T04:35:17.077Z,15.95
2022-09-04T04:38:01.380Z,15.92
2022-09-04T04:40:48.652Z,15.93
2022-09-04T04:43:23.560Z,15.89
2022-09-04T04:45:56.988Z,15.86
2022-09-04T04:49:07.843Z,15.98
2022-09-04T04:52:00.839Z,15.95
2022-09-04T04:54:46.613Z,16.01
2022-09-04T04:57:26.836Z,15.97
2022-09-04T05:00:06.710Z,15.91
2022-09-04T05:02:43.190Z,15.95
2022-09-04T05:05:17.329Z,16.12
2022-09-04T05:07:55.255Z,16.15
2022-09-04T05:10:33.282Z,16.28
2022-09-04T05:13:12.744Z,16.48
2022-09-04T05:16:08.030Z,16.51
2022-09-04T05:18:46.027Z,16.67
2022-09-04T05:21:22.373Z,16.85
2022-09-04T05:23:57.479Z,17.28
2022-09-04T05:26:34.303Z,17.60
2022-09-04T05:29:07.937Z,17.58
2022-09-04T05:31:47.740Z,17.89
2022-09-04T05:34:26.604Z,18.24
2022-09-04T05:37:04.140Z,18.47
2022-09-04T05:39:42.658Z,18.71
2022-09-04T05:42:38.876Z,19.04
2022-09-04T05:45:13.317Z,19.02
2022-09-04T05:47:48.827Z,18.64
2022-09-04T05:50:34.014Z,18.15
2022-09-04T05:53:42.533Z,17.93
2022-09-04T05:56:30.810Z,18.17
2022-09-04T05:59:17.324Z,18.27
2022-09-04T06:02:08.888Z,18.53
2022-09-04T06:05:03.595Z,18.30
2022-09-04T06:07:38.004Z,18.13
2022-09-04T06:10:13.497Z,17.93
2022-09-04T06:13:10.382Z,17.82
2022-09-04T06:15:50.295Z,18.03
2022-09-04T06:18:38.349Z,18.35
2022-09-04T06:21:31.960Z,18.50
2022-09-04T06:24:25.999Z,18.37
2022-09-04T06:27:13.845Z,18.48
2022-09-04T06:30:08.127Z,18.68
2022-09-04T06:32:59.065Z,18.84
2022-09-04T06:35:40.655Z,19.25
2022-09-04T06:38:34.860Z,19.85
2022-09-04T06:41:16.863Z,20.34
2022-09-04T06:43:54.390Z,20.61
2022-09-04T06:46:26.825Z,20.95
2022-09-04T06:49:03.712Z,21.44
2022-09-04T06:51:44.039Z,21.85
2022-09-04T06:54:20.354Z,22.24
2022-09-04T06:57:09.969Z,22.81
2022-09-04T06:59:52.851Z,23.50
2022-09-04T07:02:32.195Z,23.47
2022-09-04T07:05:14.734Z,23.14
2022-09-04T07:07:52.490Z,22.83
2022-09-04T07:10:25.577Z,22.97
2022-09-04T07:13:23.403Z,22.85
2022-09-04T07:16:06.871Z,24.11
2022-09-04T07:19:09.565Z,24.52
2022-09-04T07:21:48.638Z,25.75
2022-09-04T07:24:40.348Z,25.55
2022-09-04T07:27:15.732Z,25.44
2022-09-04T07:29:48.501Z,24.88
2022-09-04T07:32:22.056Z,24.42
2022-09-04T07:34:57.615Z,23.71
2022-09-04T07:37:36.373Z,23.57
2022-09-04T07:40:11.404Z,23.31
2022-09-04T07:42:48.210Z,23.01
2022-09-04T07:45:27.764Z,22.83
2022-09-04T07:48:16.340Z,23.07
2022-09-04T07:51:03.612Z,23.25
2022-09-04T07:54:08.547Z,23.28
2022-09-04T07:56:53.819Z,22.55
2022-09-04T07:59:45.452Z,22.38
2022-09-04T08:02:30.379Z,22.47
2022-09-04T08:05:14.890Z,22.42
2022-09-04T08:08:01.964Z,22.73
2022-09-04T08:10:33.702Z,22.65
2022-09-04T08:13:18.235Z,23.24
2022-09-04T08:15:58.320Z,23.04
2022-09-04T08:18:53.099Z,22.98
2022-09-04T08:21:29.476Z,23.19
2022-09-04T08:24:32.156Z,23.66
2022-09-04T08:27:10.449Z,24.49
2022-09-04T08:29:58.152Z,25.47
2022-09-04T08:32:54.767Z,25.98
2022-09-04T08:35:27.882Z,26.55
2022-09-04T08:38:18.982Z,26.57
2022-09-04T08:41:26.348Z,27.48
2022-09-04T08:44:20.720Z,28.26
2022-09-04T08:47:14.004Z,30.18
2022-09-04T08:50:27.484Z,30.30
2022-09-04T08:53:18.074Z,29.69
2022-09-04T08:55:57.052Z,29.42
2022-09-04T08:59:12.103Z,28.69
2022-09-04T09:02:31.324Z,30.23
2022-09-04T09:05:40.502Z,31.72
2022-09-04T09:08:30.945Z,32.04
2022-09-04T09:11:38.341Z,32.41
2022-09-04T09:14:41.844Z,31.80
2022-09-04T09:17:13.531Z,32.82
2022-09-04T09:19:53.735Z,33.80
2022-09-04T09:22:50.613Z,33.17
2022-09-04T09:25:21.459Z,33.24
2022-09-04T09:28:18.321Z,32.85
2022-09-04T09:31:12.278Z,32.42
2022-09-04T09:34:11.383Z,31.10
2022-09-04T09:37:02.480Z,28.94
2022-09-04T09:39:48.561Z,28.04
2022-09-04T09:42:42.628Z,27.79
2022-09-04T09:45:40.606Z,26.50
2022-09-04T09:48:49.140Z,26.41
2022-09-04T09:51:43.082Z,26.64
2022-09-04T09:54:31.152Z,28.09
2022-09-04T09:57:33.166Z,28.36
2022-09-04T10:00:12.395Z,28.90
2022-09-04T10:03:09.726Z,29.50
2022-09-04T10:06:10.948Z,30.51
2022-09-04T10:09:09.530Z,31.33
2022-09-04T10:12:23.091Z,31.95
2022-09-04T10:15:18.032Z,32.70
2022-09-04T10:18:08.060Z,33.99
2022-09-04T10:21:13.197Z,31.35
2022-09-04T10:24:35.538Z,30.54
2022-09-04T10:27:30.181Z,30.60
2022-09-04T10:30:06.552Z,30.50
2022-09-04T10:32:55.941Z,31.12
2022-09-04T10:35:25.958Z,31.65
2022-09-04T10:38:15.585Z,32.49
2022-09-04T10:40:59.224Z,33.57
2022-09-04T10:43:55.361Z,32.84
2022-09-04T10:46:27.331Z,32.26
2022-09-04T10:49:20.167Z,31.27
2022-09-04T10:52:08.957Z,32.03
2022-09-04T10:55:04.113Z,32.92
2022-09-04T10:57:50.027Z,32.89
2022-09-04T11:00:20.879Z,32.13
2022-09-04T11:03:15.908Z,32.37
2022-09-04T11:06:25.825Z,29.60
2022-09-04T11:09:19.292Z,29.68
2022-09-04T11:12:18.108Z,29.36
2022-09-04T11:15:24.126Z,28.98
2022-09-04T11:18:22.815Z,29.62
2022-09-04T11:21:12.424Z,30.27
2022-09-04T11:24:26.488Z,30.28
2022-09-04T11:27:29.249Z,29.45
2022-09-04T11:30:05.808Z,29.72
2022-09-04T11:33:10.577Z,30.10
2022-09-04T11:38:57.841Z,29.32
2022-09-04T11:41:56.457Z,29.18
2022-09-04T11:44:50.828Z,28.91
2022-09-04T11:47:39.599Z,28.57
2022-09-04T11:50:17.144Z,28.73
2022-09-04T11:53:08.059Z,29.07
2022-09-04T11:55:55.178Z,28.31
2022-09-04T11:58:37.804Z,27.87
2022-09-04T12:01:20.538Z,27.57
2022-09-04T12:04:24.521Z,28.53
2022-09-04T12:07:19.298Z,28.95
2022-09-04T12:10:17.637Z,28.75
2022-09-04T12:13:15.636Z,29.30
2022-09-04T12:16:01.639Z,29.11
2022-09-04T12:18:54.819Z,28.49
2022-09-04T12:21:44.312Z,29.01
2022-09-04T12:24:33.734Z,29.41
2022-09-04T12:27:20.798Z,29.95
2022-09-04T12:30:11.759Z,29.55
2022-09-04T12:33:07.591Z,29.70
2022-09-04T12:35:55.179Z,29.63
2022-09-04T12:39:11.584Z,29.78
2022-09-04T12:41:51.007Z,29.87
2022-09-04T12:44:30.273Z,29.80
2022-09-04T12:47:13.882Z,29.48
2022-09-04T12:49:58.745Z,29.74
2022-09-04T12:52:41.685Z,29.86
2022-09-04T12:55:17.946Z,30.02
2022-09-04T12:57:56.261Z,30.13
2022-09-04T13:00:26.295Z,30.40
2022-09-04T13:03:11.997Z,30.67
2022-09-04T13:06:04.094Z,30.49
2022-09-04T13:08:45.456Z,30.50
2022-09-04T13:11:28.460Z,29.91
2022-09-04T13:14:30.189Z,28.90
2022-09-04T13:17:06.584Z,28.39
2022-09-04T13:19:46.448Z,27.12
2022-09-04T13:22:24.051Z,24.84
2022-09-04T13:25:02.617Z,23.06
2022-09-04T13:27:40.843Z,21.83
2022-09-04T13:30:11.702Z,21.53
2022-09-04T13:33:01.462Z,20.92
2022-09-04T13:35:50.065Z,20.78
2022-09-04T13:38:34.487Z,20.94
2022-09-04T13:41:21.927Z,21.51
2022-09-04T13:44:08.015Z,21.32
2022-09-04T13:46:42.051Z,21.22
2022-09-04T13:49:13.477Z,21.81
2022-09-04T13:51:46.657Z,21.44
2022-09-04T13:54:21.567Z,21.31
2022-09-04T13:56:56.282Z,21.55
2022-09-04T13:59:24.679Z,22.00
2022-09-04T14:01:55.828Z,22.68
2022-09-04T14:04:28.722Z,23.20
2022-09-04T14:07:06.941Z,23.51
2022-09-04T14:09:43.421Z,23.33
2022-09-04T14:12:29.422Z,23.25
2022-09-04T14:15:25.499Z,23.80
2022-09-04T14:18:02.188Z,24.26
2022-09-04T14:20:33.484Z,24.55
2022-09-04T14:23:14.460Z,24.63
2022-09-04T14:25:51.011Z,24.56
2022-09-04T14:28:24.765Z,23.58
2022-09-04T14:31:01.894Z,22.60
2022-09-04T14:33:46.811Z,22.32
2022-09-04T14:36:25.553Z,22.52
2022-09-04T14:39:06.505Z,22.86
2022-09-04T14:41:46.044Z,23.33
2022-09-04T14:44:25.400Z,23.88
2022-09-04T14:47:09.608Z,25.10
2022-09-04T14:49:47.478Z,25.88
2022-09-04T14:52:18.328Z,26.19
2022-09-04T14:54:52.513Z,26.33
2022-09-04T14:57:28.145Z,26.52
2022-09-04T15:00:06.036Z,26.63
2022-09-04T15:02:37.994Z,26.97
2022-09-04T15:05:11.011Z,27.41
2022-09-04T15:08:00.941Z,27.95
2022-09-04T15:10:36.139Z,27.78
2022-09-04T15:13:42.627Z,28.85
2022-09-04T15:16:21.787Z,29.51
2022-09-04T15:19:12.036Z,29.85
2022-09-04T15:21:46.424Z,30.09
2022-09-04T15:24:24.551Z,30.92
2022-09-04T15:27:03.504Z,31.86
2022-09-04T15:29:38.862Z,32.67
2022-09-04T15:32:09.417Z,33.30
2022-09-04T15:34:42.494Z,33.04
2022-09-04T15:37:14.459Z,32.77
2022-09-04T15:39:50.411Z,32.90
2022-09-04T15:42:37.427Z,33.19
2022-09-04T15:45:12.663Z,33.27
2022-09-04T15:48:05.029Z,32.90
2022-09-04T15:50:36.147Z,32.38
2022-09-04T15:53:15.873Z,31.11
2022-09-04T15:55:46.833Z,29.62
2022-09-04T15:58:20.458Z,30.41
2022-09-04T16:01:13.266Z,29.87
2022-09-04T16:03:55.830Z,29.01
2022-09-04T16:06:29.971Z,28.59
2022-09-04T16:09:03.198Z,29.00
2022-09-04T16:11:34.795Z,28.86
2022-09-04T16:14:06.362Z,28.25
2022-09-04T16:16:42.155Z,29.09
2022-09-04T16:19:20.987Z,28.72
2022-09-04T16:21:53.846Z,28.55
2022-09-04T16:24:34.903Z,28.68
2022-09-04T16:27:08.359Z,28.07
2022-09-04T16:29:41.773Z,28.57
2022-09-04T16:32:12.192Z,29.03
2022-09-04T16:34:47.220Z,29.19
2022-09-04T16:37:21.087Z,29.32
2022-09-04T16:40:04.334Z,29.33
2022-09-04T16:42:39.920Z,29.32
2022-09-04T16:45:14.051Z,28.65
2022-09-04T16:47:46.841Z,28.29
2022-09-04T16:50:24.805Z,28.18
2022-09-04T16:53:13.334Z,28.78
2022-09-04T16:55:47.700Z,29.03
2022-09-04T16:58:35.565Z,29.31
2022-09-04T17:01:15.477Z,28.90
2022-09-04T17:04:12.490Z,28.88
2022-09-04T17:06:59.207Z,28.88
2022-09-04T17:09:33.078Z,28.64
2022-09-04T17:12:17.404Z,28.11
2022-09-04T17:14:50.522Z,26.94
2022-09-04T17:17:30.708Z,26.74
2022-09-04T17:20:05.827Z,26.83
2022-09-04T17:28:58.705Z,26.59
2022-09-04T17:28:58.960Z,26.81
2022-09-04T17:29:12.648Z,26.37
2022-09-04T17:31:25.825Z,25.94
2022-09-04T17:40:33.084Z,25.45
2022-09-04T17:40:44.479Z,24.97
2022-09-04T17:40:47.769Z,24.51
2022-09-04T17:42:45.203Z,24.07
2022-09-04T17:45:39.949Z,23.91
2022-09-04T17:48:21.689Z,23.70
2022-09-04T17:50:54.151Z,23.46
2022-09-04T17:53:33.655Z,23.17
2022-09-04T17:56:08.981Z,22.98
2022-09-04T17:58:42.787Z,22.72
2022-09-04T18:01:17.877Z,22.30
2022-09-04T18:04:21.129Z,22.06
2022-09-04T18:06:49.469Z,21.81
2022-09-04T18:09:26.994Z,21.74
2022-09-04T18:12:10.980Z,21.73
2022-09-04T18:14:43.776Z,21.50
2022-09-04T18:17:16.422Z,21.11
2022-09-04T18:19:46.947Z,20.60
2022-09-04T18:22:33.176Z,20.56
2022-09-04T18:25:16.459Z,20.73
2022-09-04T18:28:12.507Z,20.85
2022-09-04T18:37:08.218Z,20.77
2022-09-04T18:37:17.416Z,20.63
2022-09-04T18:37:24.340Z,20.58
2022-09-04T18:39:41.649Z,20.46
2022-09-04T18:50:21.588Z,20.17
2022-09-04T18:50:30.121Z,20.05
2022-09-04T18:50:37.436Z,19.92
2022-09-04T18:51:20.174Z,19.75
2022-09-04T18:53:53.754Z,19.90
2022-09-04T18:56:28.727Z,19.96
2022-09-04T18:59:05.595Z,20.00
2022-09-04T19:01:42.493Z,19.77
2022-09-04T19:04:48.296Z,19.58
2022-09-04T19:07:29.971Z,19.52
2022-09-04T19:10:10.368Z,19.65
2022-09-04T19:12:57.805Z,19.69
2022-09-04T19:15:37.601Z,19.57
2022-09-04T19:18:14.200Z,19.44
2022-09-04T19:20:50.020Z,19.17
2022-09-04T19:23:27.190Z,19.19
2022-09-04T19:25:56.917Z,18.64
2022-09-04T19:28:35.588Z,18.89
2022-09-04T19:31:13.188Z,18.95
2022-09-04T19:33:45.940Z,18.99
2022-09-04T19:36:22.869Z,19.08
2022-09-04T19:45:57.292Z,19.03
2022-09-04T19:46:17.182Z,19.04
2022-09-04T19:46:19.487Z,19.11
2022-09-04T19:47:56.745Z,19.03
2022-09-04T19:53:22.449Z,18.95
2022-09-04T19:53:42.344Z,18.84
2022-09-04T19:56:26.947Z,18.64
2022-09-04T19:58:57.575Z,18.50
2022-09-04T20:01:32.093Z,18.50
2022-09-04T20:04:03.369Z,18.46
2022-09-04T20:06:35.139Z,18.45
2022-09-04T20:09:09.561Z,18.56
2022-09-04T20:11:40.844Z,18.56
2022-09-04T20:14:20.713Z,18.58
2022-09-04T20:17:08.241Z,18.57
2022-09-04T20:19:40.555Z,18.53
2022-09-04T20:22:17.459Z,18.50
2022-09-04T20:25:01.478Z,18.47
2022-09-04T20:27:35.732Z,18.44
2022-09-04T20:30:08.052Z,18.38
2022-09-04T20:32:44.928Z,18.34
2022-09-04T20:35:33.325Z,18.18
2022-09-04T20:38:22.889Z,18.24
2022-09-04T20:40:55.283Z,18.25
2022-09-04T20:43:31.715Z,18.24
2022-09-04T20:52:04.649Z,18.26
2022-09-04T20:52:50.937Z,18.21
2022-09-04T20:52:57.197Z,18.27
2022-09-04T20:55:27.913Z,18.19
2022-09-04T21:03:10.524Z,18.15
2022-09-04T21:03:20.094Z,18.14
2022-09-04T21:04:06.667Z,18.13
2022-09-04T21:06:40.611Z,18.06
2022-09-04T21:09:27.421Z,17.90
2022-09-04T21:12:06.495Z,17.81
2022-09-04T21:14:44.601Z,17.91
2022-09-04T21:17:35.749Z,17.90
2022-09-04T21:20:59.195Z,17.89
2022-09-04T21:24:03.861Z,17.87
2022-09-04T21:27:07.129Z,17.78
2022-09-04T21:29:51.945Z,17.79
2022-09-04T21:32:51.339Z,17.57
2022-09-04T21:35:22.601Z,17.65
2022-09-04T21:38:04.388Z,17.73
2022-09-04T21:40:52.792Z,17.71
2022-09-04T21:43:49.420Z,17.73
2022-09-04T21:46:46.181Z,17.69
2022-09-04T21:49:32.924Z,17.61
2022-09-04T21:52:25.689Z,17.62
2022-09-04T21:57:20.855Z,17.60
2022-09-04T22:02:29.875Z,17.69
2022-09-04T22:02:35.824Z,17.66
2022-09-04T22:04:32.098Z,17.54
2022-09-04T22:10:50.809Z,17.48
2022-09-04T22:13:38.067Z,17.47
2022-09-04T22:13:38.744Z,17.44
2022-09-04T22:16:23.834Z,17.26
2022-09-04T22:19:16.453Z,17.13
2022-09-04T22:22:02.129Z,16.90
2022-09-04T22:25:19.930Z,17.27
2022-09-04T22:28:20.394Z,17.24
2022-09-04T22:31:11.412Z,17.24
2022-09-04T22:34:15.133Z,17.16
2022-09-04T22:37:06.606Z,17.26
2022-09-04T22:40:07.291Z,17.25
2022-09-04T22:42:46.872Z,17.09
2022-09-04T22:46:03.080Z,16.94
2022-09-04T22:48:47.261Z,17.03
2022-09-04T22:51:35.316Z,17.12
2022-09-04T22:54:22.362Z,17.13
2022-09-04T22:56:54.459Z,17.03
2022-09-04T22:59:43.921Z,16.96
2022-09-04T23:02:54.185Z,16.98
2022-09-04T23:05:36.443Z,17.01
2022-09-04T23:13:01.374Z,16.91
2022-09-04T23:13:57.991Z,16.83
2022-09-04T23:14:48.882Z,16.91
2022-09-04T23:17:31.307Z,16.92
2022-09-04T23:26:36.925Z,16.91
2022-09-04T23:26:42.859Z,16.92
2022-09-04T23:27:00.408Z,16.99
2022-09-04T23:29:51.722Z,16.79
2022-09-04T23:32:43.886Z,16.89
2022-09-04T23:35:23.003Z,16.83
2022-09-04T23:38:12.933Z,16.97
2022-09-04T23:40:44.314Z,16.73
2022-09-04T23:44:08.321Z,16.95
2022-09-04T23:47:00.778Z,16.94
2022-09-04T23:49:51.980Z,16.92
2022-09-04T23:52:27.426Z,16.86
2022-09-04T23:55:15.347Z,17.00
2022-09-04T23:57:51.005Z,16.90
